sensor_id;sensor_type;location;lat;lon;timestamp;P1;durP1;ratioP1;P2;durP2;ratioP2
25687;SDS011;17407;51.120;3.702;2024-01-30T00:01:51;13.60;;;7.68;;
25687;SDS011;17407;51.120;3.702;2024-01-30T00:04:17;12.23;;;7.50;;
25687;SDS011;17407;51.120;3.702;2024-01-30T00:06:43;12.40;;;7.93;;
25687;SDS011;17407;51.120;3.702;2024-01-30T00:09:09;10.88;;;8.15;;
25687;SDS011;17407;51.120;3.702;2024-01-30T00:11:36;12.18;;;7.47;;
25687;SDS011;17407;51.120;3.702;2024-01-30T00:14:02;14.32;;;8.73;;
25687;SDS011;17407;51.120;3.702;2024-01-30T00:16:28;12.57;;;8.23;;
25687;SDS011;17407;51.120;3.702;2024-01-30T00:18:54;10.52;;;7.80;;
25687;SDS011;17407;51.120;3.702;2024-01-30T00:21:20;11.55;;;8.20;;
25687;SDS011;17407;51.120;3.702;2024-01-30T00:23:46;12.13;;;7.68;;
25687;SDS011;17407;51.120;3.702;2024-01-30T00:26:12;11.77;;;7.65;;
25687;SDS011;17407;51.120;3.702;2024-01-30T00:28:39;11.05;;;8.18;;
25687;SDS011;17407;51.120;3.702;2024-01-30T00:31:08;13.48;;;7.82;;
25687;SDS011;17407;51.120;3.702;2024-01-30T00:33:37;11.35;;;8.23;;
25687;SDS011;17407;51.120;3.702;2024-01-30T00:36:04;12.10;;;8.38;;
25687;SDS011;17407;51.120;3.702;2024-01-30T00:38:31;12.40;;;8.45;;
25687;SDS011;17407;51.120;3.702;2024-01-30T00:40:57;11.55;;;7.57;;
25687;SDS011;17407;51.120;3.702;2024-01-30T00:43:23;11.13;;;8.07;;
25687;SDS011;17407;51.120;3.702;2024-01-30T00:45:50;10.45;;;7.97;;
25687;SDS011;17407;51.120;3.702;2024-01-30T00:48:17;12.57;;;8.07;;
25687;SDS011;17407;51.120;3.702;2024-01-30T00:50:43;9.60;;;7.53;;
25687;SDS011;17407;51.120;3.702;2024-01-30T00:53:09;11.55;;;7.57;;
25687;SDS011;17407;51.120;3.702;2024-01-30T00:55:35;14.07;;;9.10;;
25687;SDS011;17407;51.120;3.702;2024-01-30T00:58:00;12.85;;;8.90;;
25687;SDS011;17407;51.120;3.702;2024-01-30T01:00:26;9.85;;;8.10;;
25687;SDS011;17407;51.120;3.702;2024-01-30T01:02:56;13.15;;;8.00;;
25687;SDS011;17407;51.120;3.702;2024-01-30T01:05:21;14.93;;;8.38;;
25687;SDS011;17407;51.120;3.702;2024-01-30T01:07:47;12.48;;;8.35;;
25687;SDS011;17407;51.120;3.702;2024-01-30T01:10:13;11.77;;;8.82;;
25687;SDS011;17407;51.120;3.702;2024-01-30T01:12:40;10.95;;;7.95;;
25687;SDS011;17407;51.120;3.702;2024-01-30T01:15:06;11.98;;;9.20;;
25687;SDS011;17407;51.120;3.702;2024-01-30T01:17:34;13.38;;;8.65;;
25687;SDS011;17407;51.120;3.702;2024-01-30T01:20:01;11.45;;;8.10;;
25687;SDS011;17407;51.120;3.702;2024-01-30T01:22:28;12.10;;;8.43;;
25687;SDS011;17407;51.120;3.702;2024-01-30T01:24:54;11.65;;;8.23;;
25687;SDS011;17407;51.120;3.702;2024-01-30T01:27:20;12.00;;;8.57;;
25687;SDS011;17407;51.120;3.702;2024-01-30T01:29:46;12.65;;;8.23;;
25687;SDS011;17407;51.120;3.702;2024-01-30T01:32:11;15.40;;;8.82;;
25687;SDS011;17407;51.120;3.702;2024-01-30T01:34:37;12.90;;;9.82;;
25687;SDS011;17407;51.120;3.702;2024-01-30T01:37:03;9.63;;;8.05;;
25687;SDS011;17407;51.120;3.702;2024-01-30T01:39:29;13.55;;;8.52;;
25687;SDS011;17407;51.120;3.702;2024-01-30T01:41:54;15.60;;;8.85;;
25687;SDS011;17407;51.120;3.702;2024-01-30T01:44:20;11.02;;;8.15;;
25687;SDS011;17407;51.120;3.702;2024-01-30T01:46:46;16.40;;;8.73;;
25687;SDS011;17407;51.120;3.702;2024-01-30T01:49:13;10.90;;;8.77;;
25687;SDS011;17407;51.120;3.702;2024-01-30T01:51:39;12.88;;;7.95;;
25687;SDS011;17407;51.120;3.702;2024-01-30T01:54:07;12.00;;;8.57;;
25687;SDS011;17407;51.120;3.702;2024-01-30T01:56:34;14.05;;;8.75;;
25687;SDS011;17407;51.120;3.702;2024-01-30T01:59:04;12.45;;;9.15;;
25687;SDS011;17407;51.120;3.702;2024-01-30T02:01:32;12.27;;;8.63;;
25687;SDS011;17407;51.120;3.702;2024-01-30T02:03:58;14.05;;;8.82;;
25687;SDS011;17407;51.120;3.702;2024-01-30T02:06:24;13.73;;;8.75;;
25687;SDS011;17407;51.120;3.702;2024-01-30T02:08:51;11.77;;;8.43;;
25687;SDS011;17407;51.120;3.702;2024-01-30T02:11:16;9.63;;;7.97;;
25687;SDS011;17407;51.120;3.702;2024-01-30T02:13:43;12.55;;;7.97;;
25687;SDS011;17407;51.120;3.702;2024-01-30T02:16:08;13.02;;;9.00;;
25687;SDS011;17407;51.120;3.702;2024-01-30T02:18:35;11.73;;;8.90;;
25687;SDS011;17407;51.120;3.702;2024-01-30T02:21:06;12.95;;;8.90;;
25687;SDS011;17407;51.120;3.702;2024-01-30T02:23:33;14.18;;;8.82;;
25687;SDS011;17407;51.120;3.702;2024-01-30T02:25:59;12.05;;;8.55;;
25687;SDS011;17407;51.120;3.702;2024-01-30T02:28:26;16.15;;;9.57;;
25687;SDS011;17407;51.120;3.702;2024-01-30T02:30:52;13.95;;;8.30;;
25687;SDS011;17407;51.120;3.702;2024-01-30T02:33:18;12.88;;;9.05;;
25687;SDS011;17407;51.120;3.702;2024-01-30T02:35:44;15.13;;;9.10;;
25687;SDS011;17407;51.120;3.702;2024-01-30T02:38:09;11.70;;;9.35;;
25687;SDS011;17407;51.120;3.702;2024-01-30T02:40:35;13.80;;;9.20;;
25687;SDS011;17407;51.120;3.702;2024-01-30T02:43:01;12.82;;;7.85;;
25687;SDS011;17407;51.120;3.702;2024-01-30T02:45:27;14.80;;;9.10;;
25687;SDS011;17407;51.120;3.702;2024-01-30T02:47:53;12.20;;;8.25;;
25687;SDS011;17407;51.120;3.702;2024-01-30T02:50:18;12.70;;;9.00;;
25687;SDS011;17407;51.120;3.702;2024-01-30T02:52:44;12.27;;;8.40;;
25687;SDS011;17407;51.120;3.702;2024-01-30T02:55:10;15.60;;;9.73;;
25687;SDS011;17407;51.120;3.702;2024-01-30T02:57:36;11.05;;;8.38;;
25687;SDS011;17407;51.120;3.702;2024-01-30T03:00:03;16.02;;;9.13;;
25687;SDS011;17407;51.120;3.702;2024-01-30T03:02:31;11.63;;;8.45;;
25687;SDS011;17407;51.120;3.702;2024-01-30T03:04:57;12.93;;;9.52;;
25687;SDS011;17407;51.120;3.702;2024-01-30T03:07:22;12.38;;;8.90;;
25687;SDS011;17407;51.120;3.702;2024-01-30T03:09:48;11.15;;;8.60;;
25687;SDS011;17407;51.120;3.702;2024-01-30T03:12:14;11.55;;;8.95;;
25687;SDS011;17407;51.120;3.702;2024-01-30T03:14:40;11.68;;;8.80;;
25687;SDS011;17407;51.120;3.702;2024-01-30T03:17:05;11.65;;;8.88;;
25687;SDS011;17407;51.120;3.702;2024-01-30T03:19:31;14.23;;;8.80;;
25687;SDS011;17407;51.120;3.702;2024-01-30T03:21:57;11.77;;;8.85;;
25687;SDS011;17407;51.120;3.702;2024-01-30T03:24:23;10.68;;;8.77;;
25687;SDS011;17407;51.120;3.702;2024-01-30T03:26:49;14.55;;;8.23;;
25687;SDS011;17407;51.120;3.702;2024-01-30T03:29:14;12.13;;;8.73;;
25687;SDS011;17407;51.120;3.702;2024-01-30T03:31:40;10.95;;;8.98;;
25687;SDS011;17407;51.120;3.702;2024-01-30T03:34:06;13.20;;;9.32;;
25687;SDS011;17407;51.120;3.702;2024-01-30T03:36:31;13.88;;;9.23;;
25687;SDS011;17407;51.120;3.702;2024-01-30T03:39:00;12.55;;;9.50;;
25687;SDS011;17407;51.120;3.702;2024-01-30T03:41:26;14.95;;;8.60;;
25687;SDS011;17407;51.120;3.702;2024-01-30T03:43:52;13.30;;;8.68;;
25687;SDS011;17407;51.120;3.702;2024-01-30T03:46:18;15.55;;;9.63;;
25687;SDS011;17407;51.120;3.702;2024-01-30T03:48:44;16.67;;;9.20;;
25687;SDS011;17407;51.120;3.702;2024-01-30T03:51:10;10.13;;;9.00;;
25687;SDS011;17407;51.120;3.702;2024-01-30T03:53:39;14.50;;;9.38;;
25687;SDS011;17407;51.120;3.702;2024-01-30T03:56:06;12.35;;;9.57;;
25687;SDS011;17407;51.120;3.702;2024-01-30T03:58:32;13.00;;;9.43;;
25687;SDS011;17407;51.120;3.702;2024-01-30T04:00:57;12.57;;;8.63;;
25687;SDS011;17407;51.120;3.702;2024-01-30T04:03:23;11.82;;;9.10;;
25687;SDS011;17407;51.120;3.702;2024-01-30T04:05:49;12.07;;;9.77;;
25687;SDS011;17407;51.120;3.702;2024-01-30T04:08:16;14.93;;;10.50;;
25687;SDS011;17407;51.120;3.702;2024-01-30T04:10:41;12.60;;;8.98;;
25687;SDS011;17407;51.120;3.702;2024-01-30T04:13:07;20.67;;;10.18;;
25687;SDS011;17407;51.120;3.702;2024-01-30T04:15:33;13.10;;;9.35;;
25687;SDS011;17407;51.120;3.702;2024-01-30T04:17:58;15.55;;;8.75;;
25687;SDS011;17407;51.120;3.702;2024-01-30T04:20:24;13.07;;;9.85;;
25687;SDS011;17407;51.120;3.702;2024-01-30T04:22:50;15.68;;;9.55;;
25687;SDS011;17407;51.120;3.702;2024-01-30T04:25:15;12.90;;;9.45;;
25687;SDS011;17407;51.120;3.702;2024-01-30T04:27:41;10.70;;;9.32;;
25687;SDS011;17407;51.120;3.702;2024-01-30T04:30:07;13.05;;;9.43;;
25687;SDS011;17407;51.120;3.702;2024-01-30T04:32:33;14.50;;;9.20;;
25687;SDS011;17407;51.120;3.702;2024-01-30T04:35:00;12.15;;;9.50;;
25687;SDS011;17407;51.120;3.702;2024-01-30T04:37:26;14.50;;;10.40;;
25687;SDS011;17407;51.120;3.702;2024-01-30T04:39:51;14.38;;;10.35;;
25687;SDS011;17407;51.120;3.702;2024-01-30T04:42:17;19.65;;;11.00;;
25687;SDS011;17407;51.120;3.702;2024-01-30T04:44:42;14.10;;;9.68;;
25687;SDS011;17407;51.120;3.702;2024-01-30T04:47:08;13.27;;;9.07;;
25687;SDS011;17407;51.120;3.702;2024-01-30T04:49:36;15.13;;;10.05;;
25687;SDS011;17407;51.120;3.702;2024-01-30T04:52:01;12.75;;;9.60;;
25687;SDS011;17407;51.120;3.702;2024-01-30T04:54:27;13.57;;;8.63;;
25687;SDS011;17407;51.120;3.702;2024-01-30T04:56:53;16.88;;;9.50;;
25687;SDS011;17407;51.120;3.702;2024-01-30T04:59:18;12.13;;;8.90;;
25687;SDS011;17407;51.120;3.702;2024-01-30T05:01:44;14.40;;;8.93;;
25687;SDS011;17407;51.120;3.702;2024-01-30T05:04:09;12.55;;;9.10;;
25687;SDS011;17407;51.120;3.702;2024-01-30T05:06:36;13.90;;;8.70;;
25687;SDS011;17407;51.120;3.702;2024-01-30T05:09:02;15.75;;;9.50;;
25687;SDS011;17407;51.120;3.702;2024-01-30T05:11:29;14.20;;;9.10;;
25687;SDS011;17407;51.120;3.702;2024-01-30T05:13:55;15.32;;;9.02;;
25687;SDS011;17407;51.120;3.702;2024-01-30T05:16:20;15.43;;;9.57;;
25687;SDS011;17407;51.120;3.702;2024-01-30T05:18:46;17.15;;;10.38;;
25687;SDS011;17407;51.120;3.702;2024-01-30T05:21:12;13.38;;;8.25;;
25687;SDS011;17407;51.120;3.702;2024-01-30T05:23:37;14.45;;;9.30;;
25687;SDS011;17407;51.120;3.702;2024-01-30T05:26:03;14.27;;;9.63;;
25687;SDS011;17407;51.120;3.702;2024-01-30T05:28:31;12.95;;;9.57;;
25687;SDS011;17407;51.120;3.702;2024-01-30T05:30:57;14.32;;;9.15;;
25687;SDS011;17407;51.120;3.702;2024-01-30T05:33:23;14.95;;;9.38;;
25687;SDS011;17407;51.120;3.702;2024-01-30T05:35:49;13.00;;;9.13;;
25687;SDS011;17407;51.120;3.702;2024-01-30T05:38:15;15.35;;;9.60;;
25687;SDS011;17407;51.120;3.702;2024-01-30T05:40:41;14.98;;;9.57;;
25687;SDS011;17407;51.120;3.702;2024-01-30T05:43:07;13.90;;;9.50;;
25687;SDS011;17407;51.120;3.702;2024-01-30T05:45:33;15.57;;;9.13;;
25687;SDS011;17407;51.120;3.702;2024-01-30T05:48:02;13.35;;;9.57;;
25687;SDS011;17407;51.120;3.702;2024-01-30T05:50:28;12.95;;;8.80;;
25687;SDS011;17407;51.120;3.702;2024-01-30T05:52:54;17.85;;;9.05;;
25687;SDS011;17407;51.120;3.702;2024-01-30T05:55:19;14.25;;;9.55;;
25687;SDS011;17407;51.120;3.702;2024-01-30T05:57:45;18.98;;;10.18;;
25687;SDS011;17407;51.120;3.702;2024-01-30T06:00:11;17.48;;;10.15;;
25687;SDS011;17407;51.120;3.702;2024-01-30T06:02:37;22.50;;;9.05;;
25687;SDS011;17407;51.120;3.702;2024-01-30T06:05:02;19.05;;;9.80;;
25687;SDS011;17407;51.120;3.702;2024-01-30T06:07:28;13.80;;;9.75;;
25687;SDS011;17407;51.120;3.702;2024-01-30T06:09:53;17.63;;;9.50;;
25687;SDS011;17407;51.120;3.702;2024-01-30T06:12:19;13.93;;;10.00;;
25687;SDS011;17407;51.120;3.702;2024-01-30T06:14:45;18.88;;;9.25;;
25687;SDS011;17407;51.120;3.702;2024-01-30T06:17:10;14.77;;;9.57;;
25687;SDS011;17407;51.120;3.702;2024-01-30T06:19:37;13.15;;;8.68;;
25687;SDS011;17407;51.120;3.702;2024-01-30T06:22:06;13.25;;;9.38;;
25687;SDS011;17407;51.120;3.702;2024-01-30T06:24:32;12.95;;;9.90;;
25687;SDS011;17407;51.120;3.702;2024-01-30T06:26:59;12.07;;;9.07;;
25687;SDS011;17407;51.120;3.702;2024-01-30T06:29:25;14.98;;;10.05;;
25687;SDS011;17407;51.120;3.702;2024-01-30T06:31:51;15.40;;;10.05;;
25687;SDS011;17407;51.120;3.702;2024-01-30T06:34:17;12.73;;;8.65;;
25687;SDS011;17407;51.120;3.702;2024-01-30T06:36:43;12.00;;;9.32;;
25687;SDS011;17407;51.120;3.702;2024-01-30T06:39:08;14.88;;;10.07;;
25687;SDS011;17407;51.120;3.702;2024-01-30T06:41:34;13.05;;;9.35;;
25687;SDS011;17407;51.120;3.702;2024-01-30T06:44:01;16.25;;;9.13;;
25687;SDS011;17407;51.120;3.702;2024-01-30T06:46:29;14.15;;;9.70;;
25687;SDS011;17407;51.120;3.702;2024-01-30T06:48:54;13.73;;;8.90;;
25687;SDS011;17407;51.120;3.702;2024-01-30T06:51:20;14.25;;;9.18;;
25687;SDS011;17407;51.120;3.702;2024-01-30T06:53:46;12.77;;;9.38;;
25687;SDS011;17407;51.120;3.702;2024-01-30T06:56:11;12.90;;;9.27;;
25687;SDS011;17407;51.120;3.702;2024-01-30T06:58:37;14.25;;;9.77;;
25687;SDS011;17407;51.120;3.702;2024-01-30T07:01:02;15.73;;;10.10;;
25687;SDS011;17407;51.120;3.702;2024-01-30T07:03:28;15.40;;;9.32;;
25687;SDS011;17407;51.120;3.702;2024-01-30T07:05:54;15.02;;;9.43;;
25687;SDS011;17407;51.120;3.702;2024-01-30T07:08:19;14.75;;;9.73;;
25687;SDS011;17407;51.120;3.702;2024-01-30T07:10:45;16.40;;;9.77;;
25687;SDS011;17407;51.120;3.702;2024-01-30T07:13:12;12.50;;;9.32;;
25687;SDS011;17407;51.120;3.702;2024-01-30T07:15:38;14.65;;;9.40;;
25687;SDS011;17407;51.120;3.702;2024-01-30T07:18:04;12.88;;;8.65;;
25687;SDS011;17407;51.120;3.702;2024-01-30T07:20:30;16.75;;;9.05;;
25687;SDS011;17407;51.120;3.702;2024-01-30T07:22:57;15.80;;;10.02;;
25687;SDS011;17407;51.120;3.702;2024-01-30T07:25:23;14.85;;;10.13;;
25687;SDS011;17407;51.120;3.702;2024-01-30T07:27:55;14.55;;;10.32;;
25687;SDS011;17407;51.120;3.702;2024-01-30T07:30:21;15.77;;;9.52;;
25687;SDS011;17407;51.120;3.702;2024-01-30T07:32:48;13.90;;;10.32;;
25687;SDS011;17407;51.120;3.702;2024-01-30T07:35:14;15.77;;;9.73;;
25687;SDS011;17407;51.120;3.702;2024-01-30T07:37:39;18.30;;;9.60;;
25687;SDS011;17407;51.120;3.702;2024-01-30T07:40:05;17.13;;;9.38;;
25687;SDS011;17407;51.120;3.702;2024-01-30T07:42:32;14.88;;;9.63;;
25687;SDS011;17407;51.120;3.702;2024-01-30T07:44:58;16.17;;;9.93;;
25687;SDS011;17407;51.120;3.702;2024-01-30T07:47:23;21.40;;;10.50;;
25687;SDS011;17407;51.120;3.702;2024-01-30T07:49:49;18.67;;;10.15;;
25687;SDS011;17407;51.120;3.702;2024-01-30T07:52:15;13.30;;;9.45;;
25687;SDS011;17407;51.120;3.702;2024-01-30T07:54:50;14.95;;;10.07;;
25687;SDS011;17407;51.120;3.702;2024-01-30T07:57:16;15.30;;;9.88;;
25687;SDS011;17407;51.120;3.702;2024-01-30T07:59:43;22.63;;;10.93;;
25687;SDS011;17407;51.120;3.702;2024-01-30T08:02:14;14.88;;;9.95;;
25687;SDS011;17407;51.120;3.702;2024-01-30T08:04:40;18.35;;;11.35;;
25687;SDS011;17407;51.120;3.702;2024-01-30T08:07:07;19.27;;;11.45;;
25687;SDS011;17407;51.120;3.702;2024-01-30T08:09:33;19.10;;;10.63;;
25687;SDS011;17407;51.120;3.702;2024-01-30T08:11:58;17.08;;;10.57;;
25687;SDS011;17407;51.120;3.702;2024-01-30T08:14:24;15.65;;;9.88;;
25687;SDS011;17407;51.120;3.702;2024-01-30T08:16:51;20.75;;;11.25;;
25687;SDS011;17407;51.120;3.702;2024-01-30T08:19:16;17.67;;;10.60;;
25687;SDS011;17407;51.120;3.702;2024-01-30T08:21:42;19.65;;;11.07;;
25687;SDS011;17407;51.120;3.702;2024-01-30T08:24:08;15.55;;;10.57;;
25687;SDS011;17407;51.120;3.702;2024-01-30T08:26:33;20.42;;;10.77;;
25687;SDS011;17407;51.120;3.702;2024-01-30T08:29:00;18.60;;;11.15;;
25687;SDS011;17407;51.120;3.702;2024-01-30T08:31:26;15.48;;;11.25;;
25687;SDS011;17407;51.120;3.702;2024-01-30T08:33:52;20.90;;;11.68;;
25687;SDS011;17407;51.120;3.702;2024-01-30T08:36:17;16.83;;;10.30;;
25687;SDS011;17407;51.120;3.702;2024-01-30T08:38:44;16.55;;;10.73;;
25687;SDS011;17407;51.120;3.702;2024-01-30T08:41:09;18.77;;;10.68;;
25687;SDS011;17407;51.120;3.702;2024-01-30T08:43:35;14.50;;;10.00;;
25687;SDS011;17407;51.120;3.702;2024-01-30T08:46:01;16.10;;;10.23;;
25687;SDS011;17407;51.120;3.702;2024-01-30T08:48:28;14.60;;;9.23;;
25687;SDS011;17407;51.120;3.702;2024-01-30T08:50:54;16.80;;;9.02;;
25687;SDS011;17407;51.120;3.702;2024-01-30T08:53:19;15.90;;;8.95;;
25687;SDS011;17407;51.120;3.702;2024-01-30T08:55:45;21.95;;;11.25;;
25687;SDS011;17407;51.120;3.702;2024-01-30T08:58:11;16.25;;;9.88;;
25687;SDS011;17407;51.120;3.702;2024-01-30T09:00:36;18.48;;;9.82;;
25687;SDS011;17407;51.120;3.702;2024-01-30T09:03:02;20.80;;;10.07;;
25687;SDS011;17407;51.120;3.702;2024-01-30T09:05:28;18.70;;;9.02;;
25687;SDS011;17407;51.120;3.702;2024-01-30T09:07:54;12.50;;;8.20;;
25687;SDS011;17407;51.120;3.702;2024-01-30T09:10:20;14.90;;;7.82;;
25687;SDS011;17407;51.120;3.702;2024-01-30T09:12:45;11.85;;;6.10;;
25687;SDS011;17407;51.120;3.702;2024-01-30T09:15:11;9.98;;;4.95;;
25687;SDS011;17407;51.120;3.702;2024-01-30T09:17:37;11.40;;;5.22;;
25687;SDS011;17407;51.120;3.702;2024-01-30T09:20:03;12.13;;;4.15;;
25687;SDS011;17407;51.120;3.702;2024-01-30T09:22:29;6.65;;;3.70;;
25687;SDS011;17407;51.120;3.702;2024-01-30T09:24:55;8.98;;;3.72;;
25687;SDS011;17407;51.120;3.702;2024-01-30T09:27:20;11.90;;;3.65;;
25687;SDS011;17407;51.120;3.702;2024-01-30T09:29:46;16.48;;;4.13;;
25687;SDS011;17407;51.120;3.702;2024-01-30T09:32:12;11.27;;;3.38;;
25687;SDS011;17407;51.120;3.702;2024-01-30T09:34:37;7.88;;;3.70;;
25687;SDS011;17407;51.120;3.702;2024-01-30T09:37:04;7.93;;;3.53;;
25687;SDS011;17407;51.120;3.702;2024-01-30T09:39:30;13.25;;;4.35;;
25687;SDS011;17407;51.120;3.702;2024-01-30T09:42:05;8.52;;;4.10;;
25687;SDS011;17407;51.120;3.702;2024-01-30T09:44:51;11.30;;;3.53;;
25687;SDS011;17407;51.120;3.702;2024-01-30T09:47:18;6.40;;;3.35;;
25687;SDS011;17407;51.120;3.702;2024-01-30T09:49:43;9.20;;;3.47;;
25687;SDS011;17407;51.120;3.702;2024-01-30T09:52:09;7.90;;;2.80;;
25687;SDS011;17407;51.120;3.702;2024-01-30T09:54:36;8.13;;;3.17;;
25687;SDS011;17407;51.120;3.702;2024-01-30T09:57:03;7.10;;;3.05;;
25687;SDS011;17407;51.120;3.702;2024-01-30T09:59:29;5.60;;;2.35;;
25687;SDS011;17407;51.120;3.702;2024-01-30T10:01:55;8.38;;;2.00;;
25687;SDS011;17407;51.120;3.702;2024-01-30T10:04:22;4.10;;;1.50;;
25687;SDS011;17407;51.120;3.702;2024-01-30T10:06:47;5.80;;;1.50;;
25687;SDS011;17407;51.120;3.702;2024-01-30T10:09:13;3.72;;;1.30;;
25687;SDS011;17407;51.120;3.702;2024-01-30T10:11:39;4.15;;;1.52;;
25687;SDS011;17407;51.120;3.702;2024-01-30T10:14:04;4.18;;;1.60;;
25687;SDS011;17407;51.120;3.702;2024-01-30T10:16:30;6.10;;;1.85;;
25687;SDS011;17407;51.120;3.702;2024-01-30T10:18:56;4.45;;;1.58;;
25687;SDS011;17407;51.120;3.702;2024-01-30T10:21:21;2.22;;;1.42;;
25687;SDS011;17407;51.120;3.702;2024-01-30T10:23:47;5.35;;;1.10;;
25687;SDS011;17407;51.120;3.702;2024-01-30T10:26:15;2.45;;;1.00;;
25687;SDS011;17407;51.120;3.702;2024-01-30T10:28:42;8.57;;;1.30;;
25687;SDS011;17407;51.120;3.702;2024-01-30T10:31:08;4.63;;;1.60;;
25687;SDS011;17407;51.120;3.702;2024-01-30T10:33:34;5.15;;;1.83;;
25687;SDS011;17407;51.120;3.702;2024-01-30T10:36:03;2.00;;;1.20;;
25687;SDS011;17407;51.120;3.702;2024-01-30T10:38:30;2.47;;;1.63;;
25687;SDS011;17407;51.120;3.702;2024-01-30T10:41:00;2.42;;;1.42;;
25687;SDS011;17407;51.120;3.702;2024-01-30T10:43:31;5.07;;;2.55;;
25687;SDS011;17407;51.120;3.702;2024-01-30T10:46:00;7.13;;;1.83;;
25687;SDS011;17407;51.120;3.702;2024-01-30T10:48:41;9.07;;;2.05;;
25687;SDS011;17407;51.120;3.702;2024-01-30T10:51:09;7.57;;;1.75;;
25687;SDS011;17407;51.120;3.702;2024-01-30T10:53:37;3.78;;;1.75;;
25687;SDS011;17407;51.120;3.702;2024-01-30T10:56:04;5.30;;;2.28;;
25687;SDS011;17407;51.120;3.702;2024-01-30T10:58:30;5.10;;;1.50;;
25687;SDS011;17407;51.120;3.702;2024-01-30T11:00:56;4.47;;;1.52;;
25687;SDS011;17407;51.120;3.702;2024-01-30T11:03:22;5.13;;;1.85;;
25687;SDS011;17407;51.120;3.702;2024-01-30T11:05:49;4.30;;;1.63;;
25687;SDS011;17407;51.120;3.702;2024-01-30T11:08:27;5.65;;;1.50;;
25687;SDS011;17407;51.120;3.702;2024-01-30T11:10:57;5.85;;;1.30;;
25687;SDS011;17407;51.120;3.702;2024-01-30T11:13:30;5.45;;;1.45;;
25687;SDS011;17407;51.120;3.702;2024-01-30T11:16:05;8.40;;;1.98;;
25687;SDS011;17407;51.120;3.702;2024-01-30T11:18:32;3.13;;;1.23;;
25687;SDS011;17407;51.120;3.702;2024-01-30T11:21:00;8.13;;;2.17;;
25687;SDS011;17407;51.120;3.702;2024-01-30T11:23:27;8.70;;;1.42;;
25687;SDS011;17407;51.120;3.702;2024-01-30T11:25:53;7.15;;;1.88;;
25687;SDS011;17407;51.120;3.702;2024-01-30T11:28:20;5.63;;;1.60;;
25687;SDS011;17407;51.120;3.702;2024-01-30T11:30:47;8.10;;;2.45;;
25687;SDS011;17407;51.120;3.702;2024-01-30T11:33:15;8.43;;;1.95;;
25687;SDS011;17407;51.120;3.702;2024-01-30T11:35:56;6.53;;;1.70;;
25687;SDS011;17407;51.120;3.702;2024-01-30T11:38:25;5.82;;;1.67;;
25687;SDS011;17407;51.120;3.702;2024-01-30T11:40:53;8.52;;;2.13;;
25687;SDS011;17407;51.120;3.702;2024-01-30T11:43:20;9.20;;;1.92;;
25687;SDS011;17407;51.120;3.702;2024-01-30T11:45:46;7.00;;;2.13;;
25687;SDS011;17407;51.120;3.702;2024-01-30T11:48:12;6.97;;;1.63;;
25687;SDS011;17407;51.120;3.702;2024-01-30T11:50:38;6.28;;;1.90;;
25687;SDS011;17407;51.120;3.702;2024-01-30T11:53:05;9.82;;;2.58;;
25687;SDS011;17407;51.120;3.702;2024-01-30T11:55:31;8.57;;;2.50;;
25687;SDS011;17407;51.120;3.702;2024-01-30T11:57:58;4.20;;;1.77;;
25687;SDS011;17407;51.120;3.702;2024-01-30T12:00:23;5.22;;;2.15;;
25687;SDS011;17407;51.120;3.702;2024-01-30T12:02:53;6.60;;;1.85;;
25687;SDS011;17407;51.120;3.702;2024-01-30T12:05:25;4.93;;;1.48;;
25687;SDS011;17407;51.120;3.702;2024-01-30T12:07:51;9.80;;;2.30;;
25687;SDS011;17407;51.120;3.702;2024-01-30T12:10:17;3.45;;;1.30;;
25687;SDS011;17407;51.120;3.702;2024-01-30T12:12:43;7.65;;;1.40;;
25687;SDS011;17407;51.120;3.702;2024-01-30T12:15:13;4.30;;;1.25;;
25687;SDS011;17407;51.120;3.702;2024-01-30T12:17:40;7.78;;;1.90;;
25687;SDS011;17407;51.120;3.702;2024-01-30T12:20:06;5.45;;;1.42;;
25687;SDS011;17407;51.120;3.702;2024-01-30T12:22:40;6.57;;;1.40;;
25687;SDS011;17407;51.120;3.702;2024-01-30T12:25:08;2.47;;;1.20;;
25687;SDS011;17407;51.120;3.702;2024-01-30T12:27:38;3.67;;;1.38;;
25687;SDS011;17407;51.120;3.702;2024-01-30T12:30:05;2.00;;;1.00;;
25687;SDS011;17407;51.120;3.702;2024-01-30T12:32:34;7.88;;;3.17;;
25687;SDS011;17407;51.120;3.702;2024-01-30T12:35:01;4.00;;;1.45;;
25687;SDS011;17407;51.120;3.702;2024-01-30T12:37:27;4.05;;;1.48;;
25687;SDS011;17407;51.120;3.702;2024-01-30T12:39:54;3.97;;;1.85;;
25687;SDS011;17407;51.120;3.702;2024-01-30T12:42:20;6.65;;;1.38;;
25687;SDS011;17407;51.120;3.702;2024-01-30T12:44:49;3.55;;;1.38;;
25687;SDS011;17407;51.120;3.702;2024-01-30T12:47:15;4.18;;;1.42;;
25687;SDS011;17407;51.120;3.702;2024-01-30T12:49:42;4.03;;;1.48;;
25687;SDS011;17407;51.120;3.702;2024-01-30T12:52:09;5.28;;;1.90;;
25687;SDS011;17407;51.120;3.702;2024-01-30T12:54:35;5.18;;;1.45;;
25687;SDS011;17407;51.120;3.702;2024-01-30T12:57:01;8.68;;;2.05;;
25687;SDS011;17407;51.120;3.702;2024-01-30T12:59:26;4.85;;;1.88;;
25687;SDS011;17407;51.120;3.702;2024-01-30T13:01:52;6.55;;;1.50;;
25687;SDS011;17407;51.120;3.702;2024-01-30T13:04:18;5.28;;;1.60;;
25687;SDS011;17407;51.120;3.702;2024-01-30T13:06:44;8.50;;;1.80;;
25687;SDS011;17407;51.120;3.702;2024-01-30T13:09:09;4.90;;;1.42;;
25687;SDS011;17407;51.120;3.702;2024-01-30T13:11:35;4.68;;;1.67;;
25687;SDS011;17407;51.120;3.702;2024-01-30T13:14:01;4.57;;;1.85;;
25687;SDS011;17407;51.120;3.702;2024-01-30T13:16:26;8.07;;;2.13;;
25687;SDS011;17407;51.120;3.702;2024-01-30T13:18:52;4.95;;;1.90;;
25687;SDS011;17407;51.120;3.702;2024-01-30T13:21:20;4.45;;;1.50;;
25687;SDS011;17407;51.120;3.702;2024-01-30T13:23:46;5.03;;;1.95;;
25687;SDS011;17407;51.120;3.702;2024-01-30T13:26:11;5.82;;;2.63;;
25687;SDS011;17407;51.120;3.702;2024-01-30T13:28:37;7.45;;;1.83;;
25687;SDS011;17407;51.120;3.702;2024-01-30T13:31:03;8.88;;;2.50;;
25687;SDS011;17407;51.120;3.702;2024-01-30T13:33:30;6.22;;;1.95;;
25687;SDS011;17407;51.120;3.702;2024-01-30T13:35:55;7.55;;;2.42;;
25687;SDS011;17407;51.120;3.702;2024-01-30T13:38:21;7.30;;;2.10;;
25687;SDS011;17407;51.120;3.702;2024-01-30T13:40:47;7.78;;;2.00;;
25687;SDS011;17407;51.120;3.702;2024-01-30T13:43:12;9.18;;;2.08;;
25687;SDS011;17407;51.120;3.702;2024-01-30T13:45:38;8.13;;;3.20;;
25687;SDS011;17407;51.120;3.702;2024-01-30T13:48:04;7.43;;;2.45;;
25687;SDS011;17407;51.120;3.702;2024-01-30T13:50:29;7.18;;;2.13;;
25687;SDS011;17407;51.120;3.702;2024-01-30T13:52:55;6.75;;;3.00;;
25687;SDS011;17407;51.120;3.702;2024-01-30T13:55:21;5.78;;;2.45;;
25687;SDS011;17407;51.120;3.702;2024-01-30T13:57:46;5.45;;;2.33;;
25687;SDS011;17407;51.120;3.702;2024-01-30T14:00:12;7.68;;;3.10;;
25687;SDS011;17407;51.120;3.702;2024-01-30T14:02:41;4.05;;;2.83;;
25687;SDS011;17407;51.120;3.702;2024-01-30T14:05:07;9.90;;;3.20;;
25687;SDS011;17407;51.120;3.702;2024-01-30T14:07:33;7.13;;;2.80;;
25687;SDS011;17407;51.120;3.702;2024-01-30T14:10:00;9.27;;;3.20;;
25687;SDS011;17407;51.120;3.702;2024-01-30T14:12:26;9.68;;;3.28;;
25687;SDS011;17407;51.120;3.702;2024-01-30T14:14:52;9.75;;;2.92;;
25687;SDS011;17407;51.120;3.702;2024-01-30T14:17:17;9.18;;;2.78;;
25687;SDS011;17407;51.120;3.702;2024-01-30T14:19:43;5.55;;;2.72;;
25687;SDS011;17407;51.120;3.702;2024-01-30T14:22:08;5.28;;;2.65;;
25687;SDS011;17407;51.120;3.702;2024-01-30T14:24:34;12.95;;;4.10;;
25687;SDS011;17407;51.120;3.702;2024-01-30T14:27:00;7.05;;;3.47;;
25687;SDS011;17407;51.120;3.702;2024-01-30T14:29:25;10.73;;;4.15;;
25687;SDS011;17407;51.120;3.702;2024-01-30T14:31:51;8.00;;;4.30;;
25687;SDS011;17407;51.120;3.702;2024-01-30T14:34:17;7.20;;;4.07;;